createdAt,value
2019-03-22T00:01:42.954Z,10.40
2019-03-22T00:04:47.059Z,10.80
2019-03-22T00:07:50.813Z,10.50
2019-03-22T00:10:55.432Z,10.30
2019-03-22T00:13:59.504Z,10.30
2019-03-22T00:17:03.211Z,10.20
2019-03-22T00:20:08.148Z,10.00
2019-03-22T00:23:12.707Z,9.90
2019-03-22T00:26:16.434Z,9.80
2019-03-22T00:29:20.468Z,9.80
2019-03-22T00:32:24.179Z,10.00
2019-03-22T00:35:27.902Z,10.30
2019-03-22T00:38:31.604Z,10.40
2019-03-22T00:41:35.619Z,10.40
2019-03-22T00:44:39.619Z,10.60
2019-03-22T00:47:43.648Z,10.80
2019-03-22T00:50:47.397Z,10.90
2019-03-22T00:53:51.143Z,10.80
2019-03-22T00:56:56.192Z,10.40
2019-03-22T00:59:59.901Z,10.20
2019-03-22T01:03:04.077Z,10.40
2019-03-22T01:06:09.650Z,10.40
2019-03-22T01:09:13.359Z,10.20
2019-03-22T01:12:17.486Z,10.00
2019-03-22T01:15:21.197Z,9.80
2019-03-22T01:18:25.023Z,10.10
2019-03-22T01:21:29.237Z,10.40
2019-03-22T01:24:34.366Z,10.50
2019-03-22T01:27:40.593Z,10.50
2019-03-22T01:30:47.200Z,10.20
2019-03-22T01:33:50.921Z,10.10
2019-03-22T01:36:55.101Z,9.90
2019-03-22T01:39:58.827Z,9.50
2019-03-22T01:43:02.944Z,9.60
2019-03-22T01:46:06.631Z,9.80
2019-03-22T01:49:10.358Z,10.10
2019-03-22T01:52:14.108Z,10.10
2019-03-22T01:55:18.171Z,10.00
2019-03-22T01:58:22.352Z,9.90
2019-03-22T02:01:26.083Z,9.80
2019-03-22T02:04:29.806Z,9.50
2019-03-22T02:07:33.552Z,9.50
2019-03-22T02:10:37.771Z,9.30
2019-03-22T02:13:41.893Z,9.60
2019-03-22T02:16:46.276Z,9.90
2019-03-22T02:19:50.419Z,10.10
2019-03-22T02:22:54.256Z,10.30
2019-03-22T02:25:58.476Z,10.30
2019-03-22T02:29:02.558Z,10.30
2019-03-22T02:32:07.038Z,9.90
2019-03-22T02:35:26.925Z,9.90
2019-03-22T02:38:16.699Z,9.90
2019-03-22T02:41:20.756Z,9.90
2019-03-22T02:44:25.581Z,9.80
2019-03-22T02:47:29.277Z,9.60
2019-03-22T02:50:34.450Z,9.70
2019-03-22T02:53:38.544Z,9.60
2019-03-22T02:56:42.990Z,9.50
2019-03-22T02:59:47.426Z,9.60
2019-03-22T03:02:51.503Z,9.80
2019-03-22T03:05:55.272Z,9.90
2019-03-22T03:09:00.092Z,9.70
2019-03-22T03:12:03.934Z,9.80
2019-03-22T03:15:09.735Z,9.90
2019-03-22T03:18:14.105Z,10.00
2019-03-22T03:21:17.847Z,10.20
2019-03-22T03:24:21.970Z,10.10
2019-03-22T03:27:26.059Z,10.10
2019-03-22T03:30:29.870Z,9.90
2019-03-22T03:33:33.998Z,9.60
2019-03-22T03:36:37.749Z,9.40
2019-03-22T03:39:42.481Z,9.30
2019-03-22T03:42:46.207Z,9.30
2019-03-22T03:45:51.023Z,9.50
2019-03-22T03:48:55.085Z,9.80
2019-03-22T03:51:58.806Z,9.90
2019-03-22T03:55:04.368Z,9.90
2019-03-22T03:58:09.077Z,9.70
2019-03-22T04:01:13.137Z,9.80
2019-03-22T04:04:17.319Z,10.00
2019-03-22T04:07:21.021Z,10.00
2019-03-22T04:10:24.742Z,9.90
2019-03-22T04:13:29.633Z,9.60
2019-03-22T04:16:33.376Z,9.20
2019-03-22T04:19:37.069Z,9.30
2019-03-22T04:22:41.158Z,9.50
2019-03-22T04:25:45.213Z,9.60
2019-03-22T04:28:49.683Z,9.70
2019-03-22T04:31:53.530Z,9.70
2019-03-22T04:34:57.600Z,9.40
2019-03-22T04:38:01.763Z,9.40
2019-03-22T04:41:06.661Z,9.30
2019-03-22T04:44:10.408Z,9.40
2019-03-22T04:47:19.424Z,9.40
2019-03-22T04:50:26.243Z,9.40
2019-03-22T04:53:39.719Z,9.40
2019-03-22T04:56:44.519Z,9.50
2019-03-22T04:59:52.060Z,9.40
2019-03-22T05:02:56.281Z,9.50
2019-03-22T05:06:02.783Z,9.40
2019-03-22T05:09:13.804Z,9.10
2019-03-22T05:12:21.328Z,9.10
2019-03-22T05:15:25.555Z,9.20
2019-03-22T05:18:32.383Z,9.30
2019-03-22T05:21:37.040Z,8.90
2019-03-22T05:24:43.653Z,9.00
2019-03-22T05:27:50.899Z,8.90
2019-03-22T05:31:31.253Z,8.80
2019-03-22T05:34:34.972Z,9.00
2019-03-22T05:37:38.743Z,8.90
2019-03-22T05:40:42.455Z,8.90
2019-03-22T05:43:46.244Z,9.10
2019-03-22T05:46:50.380Z,9.00
2019-03-22T05:49:54.108Z,9.00
2019-03-22T05:52:57.808Z,9.20
2019-03-22T05:56:01.534Z,9.30
2019-03-22T05:59:05.602Z,9.20
2019-03-22T06:02:09.308Z,9.10
2019-03-22T06:05:13.032Z,9.20
2019-03-22T06:08:16.744Z,8.80
2019-03-22T06:11:21.229Z,9.00
2019-03-22T06:14:25.227Z,9.20
2019-03-22T06:17:29.638Z,9.30
2019-03-22T06:20:33.735Z,9.10
2019-03-22T06:23:37.460Z,9.10
2019-03-22T06:26:41.292Z,9.30
2019-03-22T06:29:54.024Z,9.30
2019-03-22T06:32:52.315Z,9.20
2019-03-22T06:35:57.339Z,9.10
2019-03-22T06:39:01.763Z,9.30
2019-03-22T06:42:07.211Z,9.50
2019-03-22T06:45:11.877Z,9.50
2019-03-22T06:48:15.577Z,9.40
2019-03-22T06:51:19.315Z,9.40
2019-03-22T06:54:31.448Z,9.50
2019-03-22T06:57:29.088Z,9.40
2019-03-22T07:00:33.372Z,9.50
2019-03-22T07:03:37.954Z,9.50
2019-03-22T07:06:42.051Z,9.50
2019-03-22T07:09:46.086Z,9.60
2019-03-22T07:12:50.178Z,9.70
2019-03-22T07:15:54.333Z,9.70
2019-03-22T07:18:59.046Z,9.70
2019-03-22T07:22:03.150Z,9.70
2019-03-22T07:25:07.376Z,9.60
2019-03-22T07:28:12.044Z,9.50
2019-03-22T07:31:16.096Z,9.70
2019-03-22T07:34:19.815Z,9.80
2019-03-22T07:37:23.889Z,10.00
2019-03-22T07:40:28.323Z,10.10
2019-03-22T07:43:32.365Z,10.30
2019-03-22T07:46:36.087Z,10.40
2019-03-22T07:49:40.648Z,10.50
2019-03-22T07:52:44.376Z,10.70
2019-03-22T07:55:48.444Z,10.70
2019-03-22T07:58:52.165Z,10.70
2019-03-22T08:01:56.268Z,10.80
2019-03-22T08:05:01.611Z,10.70
2019-03-22T08:08:05.324Z,10.70
2019-03-22T08:11:09.425Z,10.80
2019-03-22T08:14:16.319Z,11.00
2019-03-22T08:17:20.249Z,11.20
2019-03-22T08:20:24.109Z,11.40
2019-03-22T08:23:28.358Z,11.60
2019-03-22T08:26:33.572Z,11.70
2019-03-22T08:29:38.283Z,11.80
2019-03-22T08:32:42.856Z,11.80
2019-03-22T08:35:46.568Z,12.00
2019-03-22T08:38:51.413Z,12.10
2019-03-22T08:41:55.240Z,12.00
2019-03-22T08:44:58.966Z,12.00
2019-03-22T08:48:02.769Z,12.10
2019-03-22T08:51:06.860Z,12.10
2019-03-22T08:54:10.952Z,12.20
2019-03-22T08:57:14.661Z,12.40
2019-03-22T09:00:18.484Z,12.50
2019-03-22T09:03:22.298Z,12.60
2019-03-22T09:06:26.028Z,12.60
2019-03-22T09:09:40.936Z,12.70
2019-03-22T09:12:36.525Z,12.80
2019-03-22T09:15:41.381Z,12.90
2019-03-22T09:18:45.838Z,13.00
2019-03-22T09:21:50.065Z,13.20
2019-03-22T09:24:54.136Z,13.30
2019-03-22T09:27:58.048Z,13.40
2019-03-22T09:31:10.221Z,13.50
2019-03-22T09:34:07.794Z,13.60
2019-03-22T09:37:11.938Z,13.70
2019-03-22T09:40:15.651Z,13.90
2019-03-22T09:43:19.478Z,14.00
2019-03-22T09:46:23.211Z,14.20
2019-03-22T09:49:26.905Z,14.40
2019-03-22T09:52:33.598Z,14.50
2019-03-22T09:55:37.362Z,14.60
2019-03-22T09:58:41.376Z,14.90
2019-03-22T10:01:45.443Z,15.20
2019-03-22T10:04:49.140Z,15.40
2019-03-22T10:07:52.875Z,15.50
2019-03-22T10:10:57.305Z,15.70
2019-03-22T10:14:01.826Z,15.90
2019-03-22T10:17:05.610Z,16.30
2019-03-22T10:20:09.830Z,16.40
2019-03-22T10:23:14.094Z,16.40
2019-03-22T10:26:17.770Z,16.70
2019-03-22T10:29:22.405Z,17.00
2019-03-22T10:32:26.142Z,17.40
2019-03-22T10:35:29.849Z,17.60
2019-03-22T10:38:34.594Z,17.60
2019-03-22T10:41:38.396Z,17.70
2019-03-22T10:44:42.253Z,18.00
2019-03-22T10:47:46.122Z,18.00
2019-03-22T10:50:50.262Z,18.20
2019-03-22T10:53:54.813Z,18.50
2019-03-22T10:56:59.072Z,18.60
2019-03-22T11:00:03.457Z,18.70
2019-03-22T11:03:08.748Z,18.90
2019-03-22T11:06:14.082Z,19.10
2019-03-22T11:09:18.157Z,19.00
2019-03-22T11:12:21.890Z,19.10
2019-03-22T11:15:27.037Z,19.20
2019-03-22T11:18:37.272Z,19.20
2019-03-22T11:21:36.705Z,19.20
2019-03-22T11:24:41.267Z,19.30
2019-03-22T11:27:45.370Z,19.30
2019-03-22T11:30:49.536Z,19.40
2019-03-22T11:33:53.300Z,19.20
2019-03-22T11:36:57.414Z,19.10
2019-03-22T11:40:01.906Z,19.50
2019-03-22T11:43:08.981Z,20.00
2019-03-22T11:46:11.751Z,20.00
2019-03-22T11:49:15.791Z,20.00
2019-03-22T11:52:19.491Z,20.30
2019-03-22T11:55:23.219Z,19.80
2019-03-22T11:58:27.207Z,19.90
2019-03-22T12:01:30.947Z,20.00
2019-03-22T12:04:35.437Z,20.60
2019-03-22T12:07:39.140Z,20.50
2019-03-22T12:10:42.866Z,20.50
2019-03-22T12:13:46.684Z,20.60
2019-03-22T12:16:51.182Z,20.60
2019-03-22T12:19:55.320Z,20.60
2019-03-22T12:22:59.047Z,20.70
2019-03-22T12:26:04.120Z,21.40
2019-03-22T12:29:08.761Z,21.20
2019-03-22T12:32:12.799Z,21.40
2019-03-22T12:35:18.492Z,21.00
2019-03-22T12:38:22.549Z,20.90
2019-03-22T12:41:26.599Z,21.50
2019-03-22T12:44:30.670Z,21.50
2019-03-22T12:47:36.527Z,21.60
2019-03-22T12:50:40.265Z,21.50
2019-03-22T12:53:44.360Z,21.30
2019-03-22T12:56:50.021Z,21.70
2019-03-22T12:59:54.747Z,21.70
2019-03-22T13:02:58.471Z,21.60
2019-03-22T13:06:03.280Z,21.60
2019-03-22T13:09:08.700Z,21.80
2019-03-22T13:12:13.222Z,21.90
2019-03-22T13:15:16.950Z,22.20
2019-03-22T13:18:22.805Z,22.20
2019-03-22T13:21:26.513Z,22.20
2019-03-22T13:24:31.542Z,22.10
2019-03-22T13:27:35.562Z,22.00
2019-03-22T13:30:39.371Z,22.10
2019-03-22T13:33:43.884Z,22.40
2019-03-22T13:36:47.822Z,22.20
2019-03-22T13:39:51.976Z,22.20
2019-03-22T13:42:56.077Z,22.10
2019-03-22T13:46:00.179Z,22.10
2019-03-22T13:49:05.283Z,22.30
2019-03-22T13:52:08.992Z,22.20
2019-03-22T13:55:15.461Z,22.20
2019-03-22T13:58:19.291Z,22.30
2019-03-22T14:01:23.384Z,22.30
2019-03-22T14:04:27.551Z,22.10
2019-03-22T14:07:31.300Z,22.10
2019-03-22T14:10:35.581Z,21.70
2019-03-22T14:13:39.842Z,22.10
2019-03-22T14:16:43.687Z,22.30
2019-03-22T14:19:47.409Z,22.50
2019-03-22T14:22:53.834Z,22.60
2019-03-22T14:25:57.435Z,22.50
2019-03-22T14:29:01.156Z,22.40
2019-03-22T14:32:04.895Z,22.40
2019-03-22T14:35:10.790Z,22.50
2019-03-22T14:38:15.616Z,22.30
2019-03-22T14:41:19.904Z,22.30
2019-03-22T14:44:25.886Z,22.40
2019-03-22T14:47:31.564Z,22.20
2019-03-22T14:50:35.289Z,22.20
2019-03-22T14:53:38.998Z,22.30
2019-03-22T14:56:43.729Z,22.70
2019-03-22T14:59:47.791Z,22.50
2019-03-22T15:02:51.527Z,22.20
2019-03-22T15:05:56.205Z,22.30
2019-03-22T15:09:00.264Z,22.20
2019-03-22T15:12:04.064Z,22.00
2019-03-22T15:15:26.579Z,22.00
2019-03-22T15:18:53.258Z,22.00
2019-03-22T15:22:18.522Z,22.10
2019-03-22T15:25:50.921Z,22.10
2019-03-22T15:29:12.933Z,22.30
2019-03-22T15:32:28.887Z,22.10
2019-03-22T15:35:57.865Z,21.90
2019-03-22T15:42:35.568Z,21.80
2019-03-22T15:45:40.496Z,21.60
2019-03-22T15:48:45.022Z,21.50
2019-03-22T15:51:49.064Z,21.20
2019-03-22T15:54:53.237Z,21.10
2019-03-22T15:57:58.331Z,20.90
2019-03-22T16:01:02.540Z,20.90
2019-03-22T16:04:06.282Z,20.70
2019-03-22T16:07:10.699Z,20.70
2019-03-22T16:10:14.431Z,20.60
2019-03-22T16:13:18.160Z,20.60
2019-03-22T16:16:21.974Z,20.50
2019-03-22T16:19:25.687Z,20.30
2019-03-22T16:22:30.790Z,20.20
2019-03-22T16:25:34.965Z,20.10
2019-03-22T16:28:38.671Z,20.00
2019-03-22T16:31:42.951Z,19.80
2019-03-22T16:34:46.685Z,19.80
2019-03-22T16:37:51.685Z,19.50
2019-03-22T16:40:55.707Z,19.30
2019-03-22T16:43:59.414Z,19.10
2019-03-22T16:47:05.161Z,19.10
2019-03-22T16:50:22.776Z,19.00
2019-03-22T16:53:26.511Z,18.90
2019-03-22T16:56:30.972Z,18.70
2019-03-22T16:59:35.053Z,18.40
2019-03-22T17:02:38.803Z,18.30
2019-03-22T17:05:42.626Z,18.10
2019-03-22T17:08:46.348Z,17.90
2019-03-22T17:11:50.087Z,17.80
2019-03-22T17:14:53.804Z,17.80
2019-03-22T17:17:58.059Z,17.70
2019-03-22T17:21:01.793Z,17.50
2019-03-22T17:24:05.592Z,17.30
2019-03-22T17:27:10.113Z,17.30
2019-03-22T17:30:15.487Z,17.20
2019-03-22T17:33:19.651Z,17.10
2019-03-22T17:36:24.195Z,17.00
2019-03-22T17:39:28.220Z,17.00
2019-03-22T17:42:32.667Z,17.00
2019-03-22T17:45:37.260Z,17.10
2019-03-22T17:48:40.969Z,17.10
2019-03-22T17:51:44.707Z,16.90
2019-03-22T17:54:48.855Z,16.80
2019-03-22T17:57:53.904Z,16.80
2019-03-22T18:00:58.177Z,16.70
2019-03-22T18:04:01.895Z,16.50
2019-03-22T18:07:05.651Z,16.30
2019-03-22T18:10:10.670Z,16.20
2019-03-22T18:13:14.415Z,16.00
2019-03-22T18:16:18.149Z,16.00
2019-03-22T18:19:22.291Z,16.00
2019-03-22T18:22:25.982Z,15.80
2019-03-22T18:25:30.161Z,15.70
2019-03-22T18:28:34.193Z,15.50
2019-03-22T18:31:38.321Z,15.50
2019-03-22T18:34:42.040Z,15.50
2019-03-22T18:37:45.765Z,15.30
2019-03-22T18:40:49.461Z,15.20
2019-03-22T18:43:54.835Z,15.10
2019-03-22T18:46:59.280Z,15.00
2019-03-22T18:50:05.880Z,15.00
2019-03-22T18:53:09.499Z,14.90
2019-03-22T18:56:13.229Z,14.90
2019-03-22T18:59:17.327Z,14.70
2019-03-22T19:02:21.094Z,14.70
2019-03-22T19:05:25.885Z,14.80
2019-03-22T19:08:29.992Z,14.60
2019-03-22T19:11:33.704Z,14.60
2019-03-22T19:14:37.455Z,14.60
2019-03-22T19:17:41.982Z,14.50
2019-03-22T19:20:45.700Z,14.70
2019-03-22T19:23:49.444Z,14.70
2019-03-22T19:26:53.153Z,14.70
2019-03-22T19:29:56.882Z,14.60
2019-03-22T19:33:00.910Z,14.70
2019-03-22T19:36:04.650Z,14.50
2019-03-22T19:39:08.377Z,14.40
2019-03-22T19:42:12.549Z,14.40
2019-03-22T19:45:16.949Z,14.30
2019-03-22T19:48:21.430Z,14.20
2019-03-22T19:51:26.159Z,14.30
2019-03-22T19:54:31.215Z,14.50
2019-03-22T19:57:35.272Z,14.50
2019-03-22T20:00:39.785Z,14.50
2019-03-22T20:03:44.103Z,14.60
2019-03-22T20:06:47.815Z,14.40
2019-03-22T20:09:52.083Z,14.40
2019-03-22T20:12:58.316Z,14.40
2019-03-22T20:16:02.443Z,14.60
2019-03-22T20:19:06.180Z,14.80
2019-03-22T20:22:10.274Z,14.70
2019-03-22T20:25:14.818Z,14.80
2019-03-22T20:28:19.027Z,14.80
2019-03-22T20:31:22.915Z,14.70
2019-03-22T20:34:26.723Z,14.70
2019-03-22T20:37:30.557Z,14.90
2019-03-22T20:40:34.426Z,14.60
2019-03-22T20:43:38.170Z,14.50
2019-03-22T20:46:42.274Z,14.70
2019-03-22T20:49:46.338Z,14.90
2019-03-22T20:52:50.085Z,14.70
2019-03-22T20:55:56.043Z,14.70
2019-03-22T20:59:00.099Z,14.70
2019-03-22T21:02:03.832Z,14.50
2019-03-22T21:05:09.864Z,14.60
2019-03-22T21:08:14.699Z,14.40
2019-03-22T21:11:19.021Z,14.60
2019-03-22T21:14:23.025Z,14.40
2019-03-22T21:17:26.747Z,14.40
2019-03-22T21:20:30.564Z,14.40
2019-03-22T21:23:36.512Z,14.40
2019-03-22T21:26:39.935Z,14.30
2019-03-22T21:29:44.676Z,14.40
2019-03-22T21:32:48.863Z,14.60
2019-03-22T21:35:54.314Z,14.60
2019-03-22T21:38:58.035Z,14.60
2019-03-22T21:42:02.430Z,14.40
2019-03-22T21:45:06.903Z,14.40
2019-03-22T21:48:10.657Z,14.40
2019-03-22T21:51:14.820Z,14.30
2019-03-22T21:54:20.114Z,14.40
2019-03-22T21:57:23.871Z,14.30
2019-03-22T22:00:27.599Z,14.50
2019-03-22T22:03:31.956Z,14.70
2019-03-22T22:06:36.149Z,14.70
2019-03-22T22:09:40.264Z,14.80
2019-03-22T22:12:43.970Z,14.80
2019-03-22T22:15:47.696Z,14.90
2019-03-22T22:18:52.121Z,14.70
2019-03-22T22:21:55.858Z,14.80
2019-03-22T22:25:00.732Z,14.80
2019-03-22T22:28:04.447Z,14.80
2019-03-22T22:31:08.169Z,14.80
2019-03-22T22:34:11.969Z,14.90
2019-03-22T22:37:15.686Z,15.00
2019-03-22T22:40:19.948Z,14.90
2019-03-22T22:43:23.653Z,15.00
2019-03-22T22:46:27.792Z,15.10
2019-03-22T22:49:31.526Z,15.10
2019-03-22T22:52:35.566Z,15.00
2019-03-22T22:55:39.636Z,15.20
2019-03-22T22:58:43.343Z,15.20
2019-03-22T23:01:47.072Z,15.20
2019-03-22T23:04:50.830Z,15.40
2019-03-22T23:07:55.541Z,15.30
2019-03-22T23:10:59.260Z,15.40
2019-03-22T23:14:03.060Z,15.50
2019-03-22T23:17:06.908Z,15.40
2019-03-22T23:20:11.355Z,15.10
2019-03-22T23:23:15.125Z,14.80
2019-03-22T23:26:19.558Z,14.60
2019-03-22T23:29:23.367Z,14.60
2019-03-22T23:32:27.952Z,14.40
2019-03-22T23:35:34.343Z,14.40
2019-03-22T23:38:38.495Z,14.50
2019-03-22T23:41:43.727Z,14.30
2019-03-22T23:44:47.713Z,14.30
2019-03-22T23:47:52.943Z,14.20
2019-03-22T23:50:57.273Z,14.00
2019-03-22T23:54:01.351Z,14.10
2019-03-22T23:57:06.275Z,14.00
